createdAt,value
2023-01-02T00:00:39.124Z,7.30
2023-01-02T00:03:26.707Z,6.70
2023-01-02T00:06:13.740Z,6.95
2023-01-02T00:08:59.601Z,5.97
2023-01-02T00:11:45.642Z,7.00
2023-01-02T00:14:31.674Z,7.05
2023-01-02T00:17:19.401Z,6.75
2023-01-02T00:20:07.934Z,6.35
2023-01-02T00:22:53.995Z,6.47
2023-01-02T00:25:40.062Z,6.15
2023-01-02T00:28:25.486Z,6.78
2023-01-02T00:31:13.593Z,5.68
2023-01-02T00:33:59.240Z,6.47
2023-01-02T00:36:46.342Z,5.72
2023-01-02T00:39:32.227Z,6.13
2023-01-02T00:42:17.775Z,6.35
2023-01-02T00:45:03.198Z,6.10
2023-01-02T00:47:49.395Z,5.82
2023-01-02T00:50:35.074Z,5.07
2023-01-02T00:53:22.788Z,5.53
2023-01-02T00:56:08.465Z,5.60
2023-01-02T00:58:54.450Z,6.03
2023-01-02T01:01:40.207Z,5.70
2023-01-02T01:04:26.180Z,5.72
2023-01-02T01:07:11.937Z,6.10
2023-01-02T01:09:59.044Z,5.25
2023-01-02T01:12:44.688Z,5.40
2023-01-02T01:15:30.498Z,5.22
2023-01-02T01:18:16.525Z,5.85
2023-01-02T01:21:06.984Z,6.00
2023-01-02T01:23:54.319Z,5.55
2023-01-02T01:26:41.274Z,5.10
2023-01-02T01:29:27.409Z,5.40
2023-01-02T01:32:13.186Z,5.20
2023-01-02T01:34:58.696Z,5.40
2023-01-02T01:37:44.237Z,5.03
2023-01-02T01:40:37.456Z,5.88
2023-01-02T01:43:38.054Z,4.65
2023-01-02T01:46:29.920Z,5.30
2023-01-02T01:49:19.943Z,4.88
2023-01-02T01:52:09.274Z,5.20
2023-01-02T01:55:02.065Z,4.55
2023-01-02T01:57:51.310Z,5.38
2023-01-02T02:00:40.875Z,4.75
2023-01-02T02:03:28.687Z,4.45
2023-01-02T02:06:14.402Z,4.28
2023-01-02T02:09:04.851Z,4.60
2023-01-02T02:11:50.806Z,4.67
2023-01-02T02:14:36.782Z,4.50
2023-01-02T02:17:31.362Z,4.63
2023-01-02T02:20:26.500Z,4.47
2023-01-02T02:23:48.963Z,5.20
2023-01-02T02:27:09.075Z,4.40
2023-01-02T02:30:08.704Z,4.25
2023-01-02T02:33:29.685Z,4.43
2023-01-02T02:36:21.901Z,3.10
2023-01-02T02:39:16.731Z,4.20
2023-01-02T02:42:11.944Z,3.72
2023-01-02T02:45:06.861Z,4.50
2023-01-02T02:47:58.347Z,3.53
2023-01-02T02:50:51.635Z,4.00
2023-01-02T02:53:43.110Z,3.85
2023-01-02T02:56:29.741Z,4.30
2023-01-02T02:59:15.401Z,3.97
2023-01-02T03:02:02.427Z,3.88
2023-01-02T03:04:54.906Z,3.75
2023-01-02T03:07:49.310Z,3.63
2023-01-02T03:10:46.016Z,3.45
2023-01-02T03:13:42.279Z,4.03
2023-01-02T03:16:33.566Z,4.05
2023-01-02T03:19:25.223Z,3.78
2023-01-02T03:22:16.667Z,3.90
2023-01-02T03:25:04.463Z,3.50
2023-01-02T03:27:52.119Z,3.75
2023-01-02T03:30:40.227Z,3.63
2023-01-02T03:33:27.738Z,4.07
2023-01-02T03:36:20.237Z,3.80
2023-01-02T03:39:09.984Z,3.90
2023-01-02T03:41:58.838Z,3.78
2023-01-02T03:44:49.979Z,4.28
2023-01-02T03:47:41.506Z,3.47
2023-01-02T03:50:32.623Z,3.58
2023-01-02T03:53:20.188Z,3.63
2023-01-02T03:56:13.982Z,3.88
2023-01-02T03:59:08.716Z,3.50
2023-01-02T04:02:00.326Z,3.42
2023-01-02T04:04:52.964Z,3.60
2023-01-02T04:07:47.382Z,3.65
2023-01-02T04:10:35.780Z,3.63
2023-01-02T04:13:24.787Z,3.55
2023-01-02T04:16:16.835Z,3.70
2023-01-02T04:19:07.756Z,3.53
2023-01-02T04:21:57.432Z,3.60
2023-01-02T04:24:48.424Z,3.30
2023-01-02T04:27:40.575Z,3.85
2023-01-02T04:30:28.924Z,3.70
2023-01-02T04:33:16.316Z,3.20
2023-01-02T04:36:08.439Z,4.10
2023-01-02T04:38:54.117Z,3.53
2023-01-02T04:41:41.927Z,3.33
2023-01-02T09:02:26.694Z,5.28
2023-01-02T09:05:12.556Z,5.68
2023-01-02T14:25:04.250Z,10.80
2023-01-02T14:39:19.301Z,10.00
2023-01-02T14:52:35.492Z,11.63
2023-01-02T18:59:02.449Z,18.27
2023-01-02T19:01:51.086Z,11.80
